sensor_id;sensor_type;location;lat;lon;timestamp;pressure;altitude;pressure_sealevel;temperature;humidity
42289;BME280;30230;47.520;19.016;2023-04-05T00:01:17;99333.59;;;2.04;49.36
42289;BME280;30230;47.520;19.016;2023-04-05T00:03:19;99318.22;;;1.98;48.33
42289;BME280;30230;47.520;19.016;2023-04-05T00:05:19;99324.34;;;2.08;48.78
42289;BME280;30230;47.520;19.016;2023-04-05T00:07:29;99327.34;;;2.23;48.40
42289;BME280;30230;47.520;19.016;2023-04-05T00:09:29;99327.09;;;2.16;49.09
42289;BME280;30230;47.520;19.016;2023-04-05T00:11:31;99327.41;;;2.13;48.77
42289;BME280;30230;47.520;19.016;2023-04-05T00:13:32;99328.44;;;2.02;48.83
42289;BME280;30230;47.520;19.016;2023-04-05T00:15:32;99324.06;;;2.01;48.96
42289;BME280;30230;47.520;19.016;2023-04-05T00:17:32;99332.34;;;2.08;48.55
42289;BME280;30230;47.520;19.016;2023-04-05T00:19:33;99321.13;;;2.04;49.41
42289;BME280;30230;47.520;19.016;2023-04-05T00:21:35;99311.09;;;1.89;49.32
42289;BME280;30230;47.520;19.016;2023-04-05T00:23:38;99318.94;;;1.90;49.79
42289;BME280;30230;47.520;19.016;2023-04-05T00:25:38;99323.44;;;1.90;49.83
42289;BME280;30230;47.520;19.016;2023-04-05T00:27:42;99318.41;;;1.87;49.81
42289;BME280;30230;47.520;19.016;2023-04-05T00:29:42;99313.94;;;1.87;50.42
42289;BME280;30230;47.520;19.016;2023-04-05T00:31:43;99317.25;;;1.89;50.62
42289;BME280;30230;47.520;19.016;2023-04-05T00:33:44;99313.59;;;1.90;50.04
42289;BME280;30230;47.520;19.016;2023-04-05T00:35:45;99314.44;;;1.91;50.26
42289;BME280;30230;47.520;19.016;2023-04-05T00:37:45;99316.28;;;1.90;51.10
42289;BME280;30230;47.520;19.016;2023-04-05T00:39:45;99315.28;;;1.91;50.73
42289;BME280;30230;47.520;19.016;2023-04-05T00:41:46;99302.75;;;1.74;51.04
42289;BME280;30230;47.520;19.016;2023-04-05T00:43:46;99308.47;;;1.79;51.10
42289;BME280;30230;47.520;19.016;2023-04-05T00:45:47;99310.09;;;1.90;50.23
42289;BME280;30230;47.520;19.016;2023-04-05T00:47:47;99315.47;;;1.80;49.69
42289;BME280;30230;47.520;19.016;2023-04-05T00:49:47;99314.59;;;1.89;50.01
42289;BME280;30230;47.520;19.016;2023-04-05T00:51:49;99313.47;;;1.92;49.82
42289;BME280;30230;47.520;19.016;2023-04-05T00:53:50;99309.63;;;1.76;50.19
42289;BME280;30230;47.520;19.016;2023-04-05T00:55:52;99317.69;;;1.85;49.70
42289;BME280;30230;47.520;19.016;2023-04-05T00:57:53;99311.19;;;1.69;49.68
42289;BME280;30230;47.520;19.016;2023-04-05T00:59:57;99319.53;;;1.84;49.55
42289;BME280;30230;47.520;19.016;2023-04-05T01:02:07;99320.81;;;1.80;50.00
42289;BME280;30230;47.520;19.016;2023-04-05T01:04:12;99316.50;;;1.69;49.93
42289;BME280;30230;47.520;19.016;2023-04-05T01:08:48;99310.84;;;1.82;49.90
42289;BME280;30230;47.520;19.016;2023-04-05T01:10:54;99306.38;;;1.82;50.46
42289;BME280;30230;47.520;19.016;2023-04-05T01:12:56;99307.38;;;1.81;49.17
42289;BME280;30230;47.520;19.016;2023-04-05T01:14:57;99307.25;;;1.73;49.61
42289;BME280;30230;47.520;19.016;2023-04-05T01:16:58;99305.31;;;1.66;50.87
42289;BME280;30230;47.520;19.016;2023-04-05T01:18:58;99304.19;;;1.68;49.23
42289;BME280;30230;47.520;19.016;2023-04-05T01:23:52;99309.09;;;1.63;49.83
42289;BME280;30230;47.520;19.016;2023-04-05T01:28:43;99302.91;;;1.72;50.07
42289;BME280;30230;47.520;19.016;2023-04-05T01:31:18;99305.75;;;1.61;50.40
42289;BME280;30230;47.520;19.016;2023-04-05T01:33:17;99298.28;;;1.65;50.28
42289;BME280;30230;47.520;19.016;2023-04-05T01:37:41;99299.72;;;1.59;49.41
42289;BME280;30230;47.520;19.016;2023-04-05T01:39:44;99298.84;;;1.68;49.52
42289;BME280;30230;47.520;19.016;2023-04-05T01:41:47;99297.19;;;1.67;49.43
42289;BME280;30230;47.520;19.016;2023-04-05T01:43:47;99300.28;;;1.63;48.97
42289;BME280;30230;47.520;19.016;2023-04-05T01:45:48;99295.66;;;1.55;49.34
42289;BME280;30230;47.520;19.016;2023-04-05T01:47:48;99296.63;;;1.64;49.55
42289;BME280;30230;47.520;19.016;2023-04-05T01:49:49;99292.72;;;1.58;49.93
42289;BME280;30230;47.520;19.016;2023-04-05T01:51:49;99290.06;;;1.58;50.85
42289;BME280;30230;47.520;19.016;2023-04-05T01:53:50;99295.25;;;1.50;50.18
42289;BME280;30230;47.520;19.016;2023-04-05T01:55:50;99296.97;;;1.51;50.65
42289;BME280;30230;47.520;19.016;2023-04-05T01:57:52;99292.16;;;1.54;49.73
42289;BME280;30230;47.520;19.016;2023-04-05T01:59:53;99297.09;;;1.49;49.87
42289;BME280;30230;47.520;19.016;2023-04-05T02:01:53;99300.88;;;1.56;50.15
42289;BME280;30230;47.520;19.016;2023-04-05T02:03:53;99289.16;;;1.40;50.20
42289;BME280;30230;47.520;19.016;2023-04-05T02:05:55;99294.03;;;1.44;49.52
42289;BME280;30230;47.520;19.016;2023-04-05T02:07:56;99291.63;;;1.51;49.61
42289;BME280;30230;47.520;19.016;2023-04-05T02:09:56;99298.91;;;1.49;50.06
42289;BME280;30230;47.520;19.016;2023-04-05T02:11:57;99297.91;;;1.50;50.20
42289;BME280;30230;47.520;19.016;2023-04-05T02:13:57;99287.97;;;1.62;49.25
42289;BME280;30230;47.520;19.016;2023-04-05T02:15:57;99284.59;;;1.60;48.98
42289;BME280;30230;47.520;19.016;2023-04-05T02:18:01;99285.41;;;1.60;49.32
42289;BME280;30230;47.520;19.016;2023-04-05T02:20:01;99297.47;;;1.64;50.02
42289;BME280;30230;47.520;19.016;2023-04-05T02:22:04;99293.41;;;1.60;49.67
42289;BME280;30230;47.520;19.016;2023-04-05T02:24:05;99291.22;;;1.55;50.33
42289;BME280;30230;47.520;19.016;2023-04-05T02:26:05;99285.63;;;1.39;49.61
42289;BME280;30230;47.520;19.016;2023-04-05T02:28:06;99290.25;;;1.47;49.97
42289;BME280;30230;47.520;19.016;2023-04-05T02:30:06;99281.13;;;1.49;49.50
42289;BME280;30230;47.520;19.016;2023-04-05T02:32:07;99296.47;;;1.65;49.44
42289;BME280;30230;47.520;19.016;2023-04-05T02:34:08;99290.69;;;1.42;49.15
42289;BME280;30230;47.520;19.016;2023-04-05T02:36:11;99294.09;;;1.25;49.70
42289;BME280;30230;47.520;19.016;2023-04-05T02:38:12;99286.34;;;1.41;49.71
42289;BME280;30230;47.520;19.016;2023-04-05T02:40:13;99287.75;;;1.45;49.59
42289;BME280;30230;47.520;19.016;2023-04-05T02:42:14;99291.09;;;1.38;49.64
42289;BME280;30230;47.520;19.016;2023-04-05T02:44:15;99290.56;;;1.34;48.77
42289;BME280;30230;47.520;19.016;2023-04-05T02:46:15;99286.78;;;1.27;49.92
42289;BME280;30230;47.520;19.016;2023-04-05T02:48:15;99277.28;;;1.24;50.53
42289;BME280;30230;47.520;19.016;2023-04-05T02:50:16;99284.81;;;1.29;50.24
42289;BME280;30230;47.520;19.016;2023-04-05T02:52:19;99271.25;;;1.22;50.79
42289;BME280;30230;47.520;19.016;2023-04-05T02:54:20;99272.25;;;1.21;49.47
42289;BME280;30230;47.520;19.016;2023-04-05T02:56:21;99276.31;;;1.25;50.37
42289;BME280;30230;47.520;19.016;2023-04-05T02:58:22;99267.91;;;1.20;50.54
42289;BME280;30230;47.520;19.016;2023-04-05T03:00:23;99272.84;;;1.15;51.30
42289;BME280;30230;47.520;19.016;2023-04-05T03:02:23;99284.16;;;1.17;49.62
42289;BME280;30230;47.520;19.016;2023-04-05T03:04:23;99277.72;;;1.20;49.12
42289;BME280;30230;47.520;19.016;2023-04-05T03:06:26;99257.88;;;0.95;49.31
42289;BME280;30230;47.520;19.016;2023-04-05T03:08:26;99277.75;;;1.10;49.57
42289;BME280;30230;47.520;19.016;2023-04-05T03:10:28;99272.13;;;1.13;49.90
42289;BME280;30230;47.520;19.016;2023-04-05T03:12:33;99280.63;;;1.26;49.93
42289;BME280;30230;47.520;19.016;2023-04-05T03:14:34;99285.28;;;1.15;50.52
42289;BME280;30230;47.520;19.016;2023-04-05T03:16:35;99288.25;;;1.02;51.17
42289;BME280;30230;47.520;19.016;2023-04-05T03:18:35;99286.72;;;0.90;51.63
42289;BME280;30230;47.520;19.016;2023-04-05T03:20:36;99289.50;;;0.98;51.02
42289;BME280;30230;47.520;19.016;2023-04-05T03:22:40;99283.09;;;0.91;51.37
42289;BME280;30230;47.520;19.016;2023-04-05T03:24:40;99289.38;;;0.80;51.19
42289;BME280;30230;47.520;19.016;2023-04-05T03:26:45;99288.28;;;0.73;51.40
42289;BME280;30230;47.520;19.016;2023-04-05T03:28:46;99291.91;;;0.82;52.25
42289;BME280;30230;47.520;19.016;2023-04-05T03:30:46;99291.22;;;0.80;51.70
42289;BME280;30230;47.520;19.016;2023-04-05T03:32:46;99295.84;;;0.68;50.40
42289;BME280;30230;47.520;19.016;2023-04-05T03:34:47;99295.41;;;0.63;51.55
42289;BME280;30230;47.520;19.016;2023-04-05T03:36:47;99297.09;;;0.64;52.15
42289;BME280;30230;47.520;19.016;2023-04-05T03:38:48;99301.41;;;0.55;54.47
42289;BME280;30230;47.520;19.016;2023-04-05T03:40:50;99297.75;;;0.46;54.56
42289;BME280;30230;47.520;19.016;2023-04-05T03:42:51;99307.44;;;0.38;54.86
42289;BME280;30230;47.520;19.016;2023-04-05T03:44:52;99299.28;;;0.30;55.00
42289;BME280;30230;47.520;19.016;2023-04-05T03:46:53;99292.00;;;0.12;57.10
42289;BME280;30230;47.520;19.016;2023-04-05T03:48:55;99306.41;;;0.19;56.88
42289;BME280;30230;47.520;19.016;2023-04-05T03:50:55;99309.88;;;0.20;55.98
42289;BME280;30230;47.520;19.016;2023-04-05T03:52:55;99314.81;;;0.24;54.93
42289;BME280;30230;47.520;19.016;2023-04-05T03:54:56;99313.16;;;0.43;54.90
42289;BME280;30230;47.520;19.016;2023-04-05T03:56:56;99313.41;;;0.30;55.06
42289;BME280;30230;47.520;19.016;2023-04-05T03:58:57;99311.84;;;0.08;57.30
42289;BME280;30230;47.520;19.016;2023-04-05T04:00:57;99306.94;;;0.04;57.55
42289;BME280;30230;47.520;19.016;2023-04-05T04:02:57;99312.22;;;0.04;59.38
42289;BME280;30230;47.520;19.016;2023-04-05T04:04:58;99320.59;;;-0.01;58.51
42289;BME280;30230;47.520;19.016;2023-04-05T04:06:58;99319.06;;;-0.04;58.19
42289;BME280;30230;47.520;19.016;2023-04-05T04:08:59;99310.66;;;-0.09;59.81
42289;BME280;30230;47.520;19.016;2023-04-05T04:10:59;99315.72;;;0.04;58.70
42289;BME280;30230;47.520;19.016;2023-04-05T04:13:00;99316.00;;;0.01;59.28
42289;BME280;30230;47.520;19.016;2023-04-05T04:15:01;99314.34;;;0.10;55.61
42289;BME280;30230;47.520;19.016;2023-04-05T04:17:01;99328.38;;;0.21;56.53
42289;BME280;30230;47.520;19.016;2023-04-05T04:19:02;99314.25;;;0.21;55.34
42289;BME280;30230;47.520;19.016;2023-04-05T04:21:03;99317.72;;;0.12;57.10
42289;BME280;30230;47.520;19.016;2023-04-05T04:23:06;99318.41;;;0.14;57.59
42289;BME280;30230;47.520;19.016;2023-04-05T04:25:10;99319.53;;;0.11;56.79
42289;BME280;30230;47.520;19.016;2023-04-05T04:27:11;99320.66;;;0.18;57.11
42289;BME280;30230;47.520;19.016;2023-04-05T04:29:12;99326.69;;;0.30;56.09
42289;BME280;30230;47.520;19.016;2023-04-05T04:31:15;99320.09;;;0.15;57.32
42289;BME280;30230;47.520;19.016;2023-04-05T04:33:15;99313.81;;;0.16;58.12
42289;BME280;30230;47.520;19.016;2023-04-05T04:35:17;99327.94;;;0.16;57.76
42289;BME280;30230;47.520;19.016;2023-04-05T04:37:19;99324.16;;;0.19;57.63
42289;BME280;30230;47.520;19.016;2023-04-05T04:39:22;99321.22;;;0.12;57.60
42289;BME280;30230;47.520;19.016;2023-04-05T04:41:25;99319.84;;;0.28;55.77
42289;BME280;30230;47.520;19.016;2023-04-05T04:43:26;99321.25;;;0.22;57.77
42289;BME280;30230;47.520;19.016;2023-04-05T04:45:27;99314.16;;;0.42;54.76
42289;BME280;30230;47.520;19.016;2023-04-05T04:47:28;99307.44;;;0.38;54.36
42289;BME280;30230;47.520;19.016;2023-04-05T04:49:29;99322.66;;;0.45;54.69
42289;BME280;30230;47.520;19.016;2023-04-05T04:51:31;99325.91;;;0.49;54.85
42289;BME280;30230;47.520;19.016;2023-04-05T04:53:32;99321.69;;;0.46;55.90
42289;BME280;30230;47.520;19.016;2023-04-05T04:55:32;99312.00;;;0.36;57.03
42289;BME280;30230;47.520;19.016;2023-04-05T04:57:32;99324.72;;;0.22;57.07
42289;BME280;30230;47.520;19.016;2023-04-05T04:59:33;99330.88;;;0.23;58.59
42289;BME280;30230;47.520;19.016;2023-04-05T05:01:33;99328.09;;;0.24;58.00
42289;BME280;30230;47.520;19.016;2023-04-05T05:03:35;99321.78;;;0.25;57.84
42289;BME280;30230;47.520;19.016;2023-04-05T05:05:42;99330.19;;;0.31;58.07
42289;BME280;30230;47.520;19.016;2023-04-05T05:07:42;99322.78;;;0.24;56.95
42289;BME280;30230;47.520;19.016;2023-04-05T05:09:43;99339.88;;;0.32;56.96
42289;BME280;30230;47.520;19.016;2023-04-05T05:11:43;99328.41;;;0.31;56.48
42289;BME280;30230;47.520;19.016;2023-04-05T05:13:44;99335.66;;;0.39;57.59
42289;BME280;30230;47.520;19.016;2023-04-05T05:15:44;99337.75;;;0.35;57.33
42289;BME280;30230;47.520;19.016;2023-04-05T05:17:45;99335.94;;;0.45;56.97
42289;BME280;30230;47.520;19.016;2023-04-05T05:19:46;99329.22;;;0.32;55.30
42289;BME280;30230;47.520;19.016;2023-04-05T05:21:46;99340.16;;;0.38;56.13
42289;BME280;30230;47.520;19.016;2023-04-05T05:23:49;99342.25;;;0.54;56.05
42289;BME280;30230;47.520;19.016;2023-04-05T05:25:50;99342.81;;;0.48;57.19
42289;BME280;30230;47.520;19.016;2023-04-05T05:27:56;99335.97;;;0.55;56.40
42289;BME280;30230;47.520;19.016;2023-04-05T05:29:56;99346.88;;;0.62;53.03
42289;BME280;30230;47.520;19.016;2023-04-05T05:31:57;99346.63;;;0.65;51.71
42289;BME280;30230;47.520;19.016;2023-04-05T05:33:57;99338.06;;;0.61;51.01
42289;BME280;30230;47.520;19.016;2023-04-05T05:35:58;99343.28;;;0.72;50.41
42289;BME280;30230;47.520;19.016;2023-04-05T05:37:58;99343.41;;;1.00;50.95
42289;BME280;30230;47.520;19.016;2023-04-05T05:39:59;99345.78;;;1.03;51.94
42289;BME280;30230;47.520;19.016;2023-04-05T05:41:59;99333.34;;;1.03;51.11
42289;BME280;30230;47.520;19.016;2023-04-05T05:44:00;99338.34;;;1.07;50.96
42289;BME280;30230;47.520;19.016;2023-04-05T05:46:01;99299.84;;;1.11;49.28
42289;BME280;30230;47.520;19.016;2023-04-05T05:48:01;99332.03;;;1.27;50.31
42289;BME280;30230;47.520;19.016;2023-04-05T05:50:02;99333.69;;;1.28;50.69
42289;BME280;30230;47.520;19.016;2023-04-05T05:52:03;99336.13;;;1.68;48.05
42289;BME280;30230;47.520;19.016;2023-04-05T05:54:04;99326.34;;;1.59;49.86
42289;BME280;30230;47.520;19.016;2023-04-05T05:56:05;99322.69;;;1.60;49.78
42289;BME280;30230;47.520;19.016;2023-04-05T05:58:05;99326.50;;;1.58;48.93
42289;BME280;30230;47.520;19.016;2023-04-05T06:00:07;99332.00;;;1.46;49.32
42289;BME280;30230;47.520;19.016;2023-04-05T06:02:09;99336.88;;;1.51;49.14
42289;BME280;30230;47.520;19.016;2023-04-05T06:04:10;99329.75;;;1.51;48.54
42289;BME280;30230;47.520;19.016;2023-04-05T06:06:10;99328.53;;;1.73;48.21
42289;BME280;30230;47.520;19.016;2023-04-05T06:08:11;99326.00;;;1.81;49.03
42289;BME280;30230;47.520;19.016;2023-04-05T06:10:11;99332.34;;;1.71;50.08
42289;BME280;30230;47.520;19.016;2023-04-05T06:12:12;99333.25;;;1.89;48.04
42289;BME280;30230;47.520;19.016;2023-04-05T06:14:12;99333.44;;;1.78;48.03
42289;BME280;30230;47.520;19.016;2023-04-05T06:16:13;99329.09;;;1.77;47.77
42289;BME280;30230;47.520;19.016;2023-04-05T06:18:13;99336.66;;;1.81;48.37
42289;BME280;30230;47.520;19.016;2023-04-05T06:20:14;99328.78;;;1.80;48.36
42289;BME280;30230;47.520;19.016;2023-04-05T06:22:15;99329.22;;;1.75;48.98
42289;BME280;30230;47.520;19.016;2023-04-05T06:24:15;99339.03;;;1.75;48.28
42289;BME280;30230;47.520;19.016;2023-04-05T06:26:20;99338.72;;;1.88;47.19
42289;BME280;30230;47.520;19.016;2023-04-05T06:28:22;99337.31;;;1.93;47.55
42289;BME280;30230;47.520;19.016;2023-04-05T06:30:22;99330.94;;;2.04;48.27
42289;BME280;30230;47.520;19.016;2023-04-05T06:32:23;99341.31;;;2.07;48.55
42289;BME280;30230;47.520;19.016;2023-04-05T06:34:23;99337.66;;;2.08;47.92
42289;BME280;30230;47.520;19.016;2023-04-05T06:36:23;99337.53;;;2.27;48.00
42289;BME280;30230;47.520;19.016;2023-04-05T06:38:25;99336.19;;;2.41;47.61
42289;BME280;30230;47.520;19.016;2023-04-05T06:40:26;99337.75;;;2.44;47.19
42289;BME280;30230;47.520;19.016;2023-04-05T06:42:26;99337.13;;;2.50;47.54
42289;BME280;30230;47.520;19.016;2023-04-05T06:44:27;99335.06;;;2.44;47.72
42289;BME280;30230;47.520;19.016;2023-04-05T06:46:27;99344.91;;;2.43;47.42
42289;BME280;30230;47.520;19.016;2023-04-05T06:48:27;99335.06;;;2.44;48.08
42289;BME280;30230;47.520;19.016;2023-04-05T06:50:28;99339.97;;;2.66;48.04
42289;BME280;30230;47.520;19.016;2023-04-05T06:52:29;99335.69;;;2.73;46.76
42289;BME280;30230;47.520;19.016;2023-04-05T06:54:29;99332.88;;;2.57;46.73
42289;BME280;30230;47.520;19.016;2023-04-05T06:56:30;99340.88;;;2.57;46.30
42289;BME280;30230;47.520;19.016;2023-04-05T06:58:31;99336.69;;;2.72;46.90
42289;BME280;30230;47.520;19.016;2023-04-05T07:00:31;99337.69;;;2.89;46.69
42289;BME280;30230;47.520;19.016;2023-04-05T07:02:31;99335.09;;;2.79;46.58
42289;BME280;30230;47.520;19.016;2023-04-05T07:04:32;99330.28;;;2.65;46.33
42289;BME280;30230;47.520;19.016;2023-04-05T07:06:35;99328.47;;;2.83;45.15
42289;BME280;30230;47.520;19.016;2023-04-05T07:08:38;99328.91;;;2.97;45.18
42289;BME280;30230;47.520;19.016;2023-04-05T07:10:39;99333.34;;;2.88;45.25
42289;BME280;30230;47.520;19.016;2023-04-05T07:12:39;99332.97;;;3.01;44.24
42289;BME280;30230;47.520;19.016;2023-04-05T07:14:40;99329.13;;;3.21;46.96
42289;BME280;30230;47.520;19.016;2023-04-05T07:16:40;99334.78;;;3.44;45.55
42289;BME280;30230;47.520;19.016;2023-04-05T07:18:41;99339.59;;;3.66;46.86
42289;BME280;30230;47.520;19.016;2023-04-05T07:20:41;99334.03;;;3.52;46.81
42289;BME280;30230;47.520;19.016;2023-04-05T07:22:41;99336.84;;;4.61;74.45
42289;BME280;30230;47.520;19.016;2023-04-05T07:24:43;99324.44;;;4.60;45.01
42289;BME280;30230;47.520;19.016;2023-04-05T07:26:44;99341.19;;;4.70;44.43
42289;BME280;30230;47.520;19.016;2023-04-05T07:28:44;99335.34;;;4.75;43.44
42289;BME280;30230;47.520;19.016;2023-04-05T07:30:45;99327.53;;;4.97;42.60
42289;BME280;30230;47.520;19.016;2023-04-05T07:32:45;99327.38;;;5.23;42.80
42289;BME280;30230;47.520;19.016;2023-04-05T07:34:46;99313.44;;;5.61;52.08
42289;BME280;30230;47.520;19.016;2023-04-05T07:36:47;99327.72;;;6.48;56.10
42289;BME280;30230;47.520;19.016;2023-04-05T07:38:49;99327.66;;;7.10;40.54
42289;BME280;30230;47.520;19.016;2023-04-05T07:40:51;99313.56;;;6.62;37.94
42289;BME280;30230;47.520;19.016;2023-04-05T07:42:51;99310.47;;;6.42;38.16
42289;BME280;30230;47.520;19.016;2023-04-05T07:44:52;99319.97;;;6.84;41.29
42289;BME280;30230;47.520;19.016;2023-04-05T07:46:53;99325.22;;;6.46;38.82
42289;BME280;30230;47.520;19.016;2023-04-05T07:48:53;99321.06;;;6.36;38.67
42289;BME280;30230;47.520;19.016;2023-04-05T07:50:54;99318.94;;;6.31;37.36
42289;BME280;30230;47.520;19.016;2023-04-05T07:52:54;99325.97;;;6.24;39.80
42289;BME280;30230;47.520;19.016;2023-04-05T07:54:55;99328.97;;;6.37;38.51
42289;BME280;30230;47.520;19.016;2023-04-05T07:56:55;99327.00;;;6.23;37.74
42289;BME280;30230;47.520;19.016;2023-04-05T07:58:57;99328.22;;;6.51;37.55
42289;BME280;30230;47.520;19.016;2023-04-05T08:01:02;99330.72;;;6.53;37.39
42289;BME280;30230;47.520;19.016;2023-04-05T08:03:02;99324.03;;;6.72;36.63
42289;BME280;30230;47.520;19.016;2023-04-05T08:05:04;99311.63;;;6.48;38.50
42289;BME280;30230;47.520;19.016;2023-04-05T08:07:05;99318.13;;;6.53;36.84
42289;BME280;30230;47.520;19.016;2023-04-05T08:09:05;99314.63;;;6.53;37.09
42289;BME280;30230;47.520;19.016;2023-04-05T08:11:08;99309.75;;;6.57;37.05
42289;BME280;30230;47.520;19.016;2023-04-05T08:13:11;99304.00;;;6.60;38.97
42289;BME280;30230;47.520;19.016;2023-04-05T08:15:12;99304.56;;;6.78;38.51
42289;BME280;30230;47.520;19.016;2023-04-05T08:17:12;99307.66;;;7.13;36.46
42289;BME280;30230;47.520;19.016;2023-04-05T08:19:13;99310.16;;;6.91;34.93
42289;BME280;30230;47.520;19.016;2023-04-05T08:21:14;99310.69;;;6.87;37.56
42289;BME280;30230;47.520;19.016;2023-04-05T08:23:14;99315.31;;;6.78;38.24
42289;BME280;30230;47.520;19.016;2023-04-05T08:25:15;99300.19;;;6.77;35.38
42289;BME280;30230;47.520;19.016;2023-04-05T08:27:15;99311.44;;;7.03;37.25
42289;BME280;30230;47.520;19.016;2023-04-05T08:29:17;99306.69;;;7.05;35.89
42289;BME280;30230;47.520;19.016;2023-04-05T08:31:18;99301.75;;;6.94;36.73
42289;BME280;30230;47.520;19.016;2023-04-05T08:33:19;99309.28;;;6.99;38.01
42289;BME280;30230;47.520;19.016;2023-04-05T08:35:20;99311.84;;;6.69;35.13
42289;BME280;30230;47.520;19.016;2023-04-05T08:37:20;99311.78;;;7.00;35.73
42289;BME280;30230;47.520;19.016;2023-04-05T08:39:21;99290.00;;;6.95;35.49
42289;BME280;30230;47.520;19.016;2023-04-05T08:41:22;99285.56;;;7.25;35.69
42289;BME280;30230;47.520;19.016;2023-04-05T08:43:54;99306.38;;;7.61;35.12
42289;BME280;30230;47.520;19.016;2023-04-05T08:45:57;99304.78;;;7.52;35.20
42289;BME280;30230;47.520;19.016;2023-04-05T08:47:58;99305.16;;;7.64;35.85
42289;BME280;30230;47.520;19.016;2023-04-05T08:49:58;99298.06;;;7.71;36.53
42289;BME280;30230;47.520;19.016;2023-04-05T08:51:59;99306.22;;;7.92;37.00
42289;BME280;30230;47.520;19.016;2023-04-05T08:54:00;99294.34;;;8.01;34.79
42289;BME280;30230;47.520;19.016;2023-04-05T08:56:02;99293.66;;;8.44;34.45
42289;BME280;30230;47.520;19.016;2023-04-05T08:58:06;99293.00;;;8.27;35.14
42289;BME280;30230;47.520;19.016;2023-04-05T09:00:10;99296.63;;;8.34;35.74
42289;BME280;30230;47.520;19.016;2023-04-05T09:02:17;99296.16;;;8.30;35.18
42289;BME280;30230;47.520;19.016;2023-04-05T09:04:22;99290.59;;;8.68;35.90
42289;BME280;30230;47.520;19.016;2023-04-05T09:06:23;99288.00;;;8.75;33.23
42289;BME280;30230;47.520;19.016;2023-04-05T09:08:26;99293.72;;;8.50;34.49
42289;BME280;30230;47.520;19.016;2023-04-05T09:10:28;99293.81;;;8.78;33.47
42289;BME280;30230;47.520;19.016;2023-04-05T09:12:29;99294.94;;;8.84;34.40
42289;BME280;30230;47.520;19.016;2023-04-05T09:14:32;99296.91;;;8.75;33.19
42289;BME280;30230;47.520;19.016;2023-04-05T09:16:37;99294.41;;;8.74;34.47
42289;BME280;30230;47.520;19.016;2023-04-05T09:18:38;99288.56;;;8.92;34.67
42289;BME280;30230;47.520;19.016;2023-04-05T09:20:38;99285.44;;;8.88;35.66
42289;BME280;30230;47.520;19.016;2023-04-05T09:22:45;99289.84;;;9.17;34.22
42289;BME280;30230;47.520;19.016;2023-04-05T09:24:46;99286.28;;;9.10;33.36
42289;BME280;30230;47.520;19.016;2023-04-05T09:26:46;99278.66;;;9.42;33.16
42289;BME280;30230;47.520;19.016;2023-04-05T09:28:47;99287.91;;;9.32;35.49
42289;BME280;30230;47.520;19.016;2023-04-05T09:30:47;99288.13;;;9.31;33.55
42289;BME280;30230;47.520;19.016;2023-04-05T09:32:50;99290.50;;;9.47;34.66
42289;BME280;30230;47.520;19.016;2023-04-05T09:34:57;99282.19;;;9.42;33.91
42289;BME280;30230;47.520;19.016;2023-04-05T09:37:00;99272.59;;;9.39;34.02
42289;BME280;30230;47.520;19.016;2023-04-05T09:39:08;99279.63;;;9.34;33.98
42289;BME280;30230;47.520;19.016;2023-04-05T09:41:08;99282.72;;;8.67;34.34
42289;BME280;30230;47.520;19.016;2023-04-05T09:43:11;99284.31;;;8.10;34.55
42289;BME280;30230;47.520;19.016;2023-04-05T09:45:12;99290.34;;;8.12;35.11
42289;BME280;30230;47.520;19.016;2023-04-05T09:47:17;99287.94;;;7.73;34.36
42289;BME280;30230;47.520;19.016;2023-04-05T09:49:31;99278.59;;;8.34;34.69
42289;BME280;30230;47.520;19.016;2023-04-05T09:51:36;99272.16;;;8.86;35.91
42289;BME280;30230;47.520;19.016;2023-04-05T09:53:55;99269.50;;;9.14;34.22
42289;BME280;30230;47.520;19.016;2023-04-05T09:56:08;99256.09;;;9.49;31.53
42289;BME280;30230;47.520;19.016;2023-04-05T09:58:18;99265.00;;;9.78;32.42
42289;BME280;30230;47.520;19.016;2023-04-05T10:00:21;99263.28;;;9.70;31.50
42289;BME280;30230;47.520;19.016;2023-04-05T10:02:22;99267.13;;;9.89;31.41
42289;BME280;30230;47.520;19.016;2023-04-05T10:04:23;99260.78;;;10.03;30.62
42289;BME280;30230;47.520;19.016;2023-04-05T10:06:33;99265.06;;;10.26;31.54
42289;BME280;30230;47.520;19.016;2023-04-05T10:08:34;99258.84;;;9.97;31.20
42289;BME280;30230;47.520;19.016;2023-04-05T10:10:37;99268.72;;;9.77;32.74
42289;BME280;30230;47.520;19.016;2023-04-05T10:12:45;99264.81;;;9.23;34.11
42289;BME280;30230;47.520;19.016;2023-04-05T10:14:47;99265.38;;;8.69;33.84
42289;BME280;30230;47.520;19.016;2023-04-05T10:16:54;99270.75;;;8.18;34.17
42289;BME280;30230;47.520;19.016;2023-04-05T10:18:58;99261.94;;;8.09;34.14
42289;BME280;30230;47.520;19.016;2023-04-05T10:20:59;99264.00;;;8.07;34.90
42289;BME280;30230;47.520;19.016;2023-04-05T10:23:06;99260.56;;;8.65;34.50
42289;BME280;30230;47.520;19.016;2023-04-05T10:25:20;99249.88;;;9.49;32.66
42289;BME280;30230;47.520;19.016;2023-04-05T10:27:32;99253.28;;;9.99;32.57
42289;BME280;30230;47.520;19.016;2023-04-05T10:29:43;99247.00;;;9.91;33.11
42289;BME280;30230;47.520;19.016;2023-04-05T10:31:58;99249.91;;;9.55;34.57
42289;BME280;30230;47.520;19.016;2023-04-05T10:34:06;99262.22;;;8.87;33.70
42289;BME280;30230;47.520;19.016;2023-04-05T10:39:00;99254.44;;;7.90;33.94
42289;BME280;30230;47.520;19.016;2023-04-05T10:41:13;99260.50;;;7.77;35.83
42289;BME280;30230;47.520;19.016;2023-04-05T10:43:20;99253.66;;;8.62;34.52
42289;BME280;30230;47.520;19.016;2023-04-05T10:45:22;99241.28;;;9.38;35.49
42289;BME280;30230;47.520;19.016;2023-04-05T10:47:25;99243.53;;;9.98;33.83
42289;BME280;30230;47.520;19.016;2023-04-05T10:49:38;99239.16;;;10.45;30.44
42289;BME280;30230;47.520;19.016;2023-04-05T10:51:39;99216.09;;;10.42;31.48
42289;BME280;30230;47.520;19.016;2023-04-05T10:53:40;99235.88;;;10.62;30.28
42289;BME280;30230;47.520;19.016;2023-04-05T10:55:45;99243.69;;;10.31;30.75
42289;BME280;30230;47.520;19.016;2023-04-05T10:57:46;99247.06;;;10.59;30.80
42289;BME280;30230;47.520;19.016;2023-04-05T10:59:48;99241.91;;;10.64;29.65